Time;durP1;ratioP1;P1;durP2;ratioP2;P2;SDS_P1;SDS_P2;PMS_P1;PMS_P2;Temp;Humidity;BMP_temperature;BMP_pressure;BME280_temperature;BME280_humidity;BME280_pressure;Samples;Min_cycle;Max_cycle;Signal;HPM_P1;HPM_P2
2022/07/27 00:00:38;;;;;;;;;;;21.80;63.70;;;;;;1990207;28;20304;-76
2022/07/27 00:01:36;;;;;;;;;;;21.80;63.60;;;;;;1997053;28;19912;-76
2022/07/27 00:02:35;;;;;;;;;;;21.80;63.70;;;;;;1998793;28;19906;-76
2022/07/27 00:03:34;;;;;;;;;;;21.80;63.80;;;;;;1998165;28;19937;-77
2022/07/27 00:04:32;;;;;;;;;;;21.80;63.70;;;;;;1998102;28;20432;-77
2022/07/27 00:05:31;;;;;;;;;;;21.80;63.70;;;;;;1998058;28;19912;-75
2022/07/27 00:06:29;;;;;;;;;;;21.80;63.80;;;;;;1997902;28;19914;-76
2022/07/27 00:07:28;;;;;;;;;;;21.80;63.80;;;;;;1997913;28;19905;-76
2022/07/27 00:08:26;;;;;;;;;;;21.80;63.80;;;;;;1997917;28;19909;-76
2022/07/27 00:09:25;;;;;;;;;;;21.80;63.80;;;;;;1997898;28;20051;-76
2022/07/27 00:10:24;;;;;;;;;;;21.80;63.90;;;;;;1997923;28;19906;-76
2022/07/27 00:11:23;;;;;;;;;;;21.80;63.80;;;;;;1997586;28;20029;-76
2022/07/27 00:12:22;;;;;;;;;;;21.80;63.80;;;;;;1990112;28;19910;-76
2022/07/27 00:13:20;;;;;;;;;;;21.80;63.80;;;;;;1982229;29;19935;-76
2022/07/27 00:14:19;;;;;;;;;;;21.80;63.80;;;;;;1989232;28;19906;-76
2022/07/27 00:15:17;;;;;;;;;;;21.80;63.80;;;;;;1997489;28;19912;-76
2022/07/27 00:16:16;;;;;;;;;;;21.80;63.90;;;;;;1998172;28;19949;-76
2022/07/27 00:17:14;;;;;;;;;;;21.80;63.90;;;;;;1997925;28;20357;-76
2022/07/27 00:18:13;;;;;;;;;;;21.80;63.90;;;;;;1998273;28;20000;-76
2022/07/27 00:19:11;;;;;;;;;;;21.80;63.80;;;;;;1997958;28;19913;-75
2022/07/27 00:20:11;;;;;;;;;;;21.80;63.80;;;;;;1989188;28;19913;-76
2022/07/27 00:21:10;;;;;;;;;;;21.80;63.90;;;;;;1990114;28;20428;-75
2022/07/27 00:22:08;;;;;;;;;;;21.80;63.90;;;;;;1997699;28;19961;-76
2022/07/27 00:23:07;;;;;;;;;;;21.80;63.80;;;;;;1997848;28;19953;-75
2022/07/27 00:24:06;;;;;;;;;;;21.80;63.90;;;;;;1998028;28;19913;-76
2022/07/27 00:25:06;;;;;;;;;;;21.80;63.90;;;;;;1997766;28;19905;-75
2022/07/27 00:26:05;;;;;;;;;;;21.80;63.90;;;;;;1989168;28;19910;-76
2022/07/27 00:27:04;;;;;;;;;;;21.80;63.90;;;;;;1989788;28;19972;-75
2022/07/27 00:28:04;;;;;;;;;;;21.80;64.00;;;;;;1997828;28;19906;-75
2022/07/27 00:29:04;;;;;;;;;;;21.80;64.00;;;;;;1997848;28;19905;-76
2022/07/27 00:30:03;;;;;;;;;;;21.80;63.90;;;;;;1997878;28;20004;-76
2022/07/27 00:31:01;;;;;;;;;;;21.80;63.90;;;;;;1997820;28;19906;-76
2022/07/27 00:35:46;;;;;;;;;;;21.80;63.90;;;;;;1998600;28;19996;-76
2022/07/27 00:43:27;;;;;;;;;;;21.70;63.90;;;;;;1998097;28;19933;-76
2022/07/27 00:44:27;;;;;;;;;;;21.80;64.10;;;;;;1998152;28;19913;-76
2022/07/27 00:45:25;;;;;;;;;;;21.70;64.00;;;;;;1997934;28;20423;-76
2022/07/27 00:46:25;;;;;;;;;;;21.70;64.00;;;;;;1998201;28;19977;-76
2022/07/27 00:47:23;;;;;;;;;;;21.70;64.00;;;;;;1998058;28;20282;-76
2022/07/27 00:48:22;;;;;;;;;;;21.80;64.10;;;;;;1998578;28;19912;-76
2022/07/27 00:49:20;;;;;;;;;;;21.70;64.10;;;;;;2000164;28;19935;-75
2022/07/27 00:50:19;;;;;;;;;;;21.70;64.10;;;;;;2006731;28;19928;-75
2022/07/27 00:51:19;;;;;;;;;;;21.70;64.10;;;;;;2006863;28;19916;-75
2022/07/27 00:52:17;;;;;;;;;;;21.80;64.10;;;;;;2007187;28;19898;-75
2022/07/27 00:53:16;;;;;;;;;;;21.70;64.00;;;;;;2006782;28;19906;-75
2022/07/27 00:54:16;;;;;;;;;;;21.70;64.00;;;;;;2006612;28;19894;-75
2022/07/27 00:55:16;;;;;;;;;;;21.70;64.00;;;;;;2007146;28;19898;-75
2022/07/27 00:56:15;;;;;;;;;;;21.70;64.00;;;;;;2006409;28;19893;-74
2022/07/27 00:57:14;;;;;;;;;;;21.70;64.00;;;;;;2006533;28;19905;-75
2022/07/27 00:58:12;;;;;;;;;;;21.70;63.90;;;;;;2006342;28;19921;-74
2022/07/27 00:59:11;;;;;;;;;;;21.70;64.00;;;;;;2006198;28;19894;-75
2022/07/27 01:00:10;;;;;;;;;;;21.70;64.00;;;;;;2006105;28;19901;-76
2022/07/27 01:01:08;;;;;;;;;;;21.80;64.10;;;;;;2002224;28;19906;-74
2022/07/27 01:02:07;;;;;;;;;;;21.80;64.10;;;;;;2004080;28;19933;-75
2022/07/27 01:03:06;;;;;;;;;;;21.70;64.10;;;;;;2006603;28;19893;-75
2022/07/27 01:04:04;;;;;;;;;;;21.80;64.10;;;;;;2006827;28;19894;-75
2022/07/27 01:05:03;;;;;;;;;;;21.70;64.00;;;;;;2007207;28;19894;-75
2022/07/27 01:06:02;;;;;;;;;;;21.70;64.00;;;;;;2006586;28;19893;-75
2022/07/27 01:07:03;;;;;;;;;;;21.70;64.00;;;;;;2006777;28;19969;-75
2022/07/27 01:08:02;;;;;;;;;;;21.70;64.10;;;;;;2006606;28;19956;-75
2022/07/27 01:10:20;;;;;;;;;;;21.70;64.00;;;;;;2006548;28;19905;-75
2022/07/27 01:11:18;;;;;;;;;;;21.70;64.00;;;;;;2005871;28;19924;-75
2022/07/27 01:12:18;;;;;;;;;;;21.70;64.00;;;;;;2006648;28;19905;-75
2022/07/27 01:13:16;;;;;;;;;;;21.70;64.00;;;;;;2004381;28;19921;-75
2022/07/27 01:14:17;;;;;;;;;;;21.70;64.10;;;;;;2002682;28;19921;-75
2022/07/27 01:15:16;;;;;;;;;;;21.70;64.00;;;;;;2006830;28;19913;-74
2022/07/27 01:16:14;;;;;;;;;;;21.70;64.00;;;;;;2006559;28;19910;-75
2022/07/27 01:17:14;;;;;;;;;;;21.70;63.90;;;;;;2006878;28;19908;-74
2022/07/27 01:18:24;;;;;;;;;;;21.70;64.00;;;;;;2006922;28;19933;-76
2022/07/27 01:19:23;;;;;;;;;;;21.70;64.00;;;;;;1998392;28;19965;-74
2022/07/27 01:20:22;;;;;;;;;;;21.70;63.90;;;;;;1998633;28;19917;-77
2022/07/27 01:21:21;;;;;;;;;;;21.70;64.70;;;;;;2006079;28;19961;-74
2022/07/27 01:22:19;;;;;;;;;;;21.70;64.00;;;;;;2007004;28;19905;-74
2022/07/27 01:23:18;;;;;;;;;;;21.70;63.90;;;;;;2006700;28;19925;-74
2022/07/27 01:24:16;;;;;;;;;;;21.70;64.00;;;;;;2007008;28;19953;-74
2022/07/27 01:25:15;;;;;;;;;;;21.70;64.00;;;;;;2006692;28;19929;-75
2022/07/27 01:26:13;;;;;;;;;;;21.70;64.10;;;;;;2006676;28;19905;-75
2022/07/27 01:27:12;;;;;;;;;;;21.70;64.00;;;;;;2006812;28;19904;-74
2022/07/27 01:28:10;;;;;;;;;;;21.70;64.00;;;;;;2000095;28;19905;-76
2022/07/27 01:29:09;;;;;;;;;;;21.70;64.10;;;;;;1998969;28;19906;-76
2022/07/27 01:30:30;;;;;;;;;;;21.70;64.10;;;;;;1989016;28;20440;-76
2022/07/27 01:31:29;;;;;;;;;;;21.70;64.10;;;;;;1992755;28;20373;-76
2022/07/27 01:32:28;;;;;;;;;;;21.70;64.20;;;;;;1998749;28;19906;-75
2022/07/27 01:33:26;;;;;;;;;;;21.70;64.00;;;;;;1997326;28;19906;-76
2022/07/27 01:34:26;;;;;;;;;;;21.70;64.10;;;;;;1997455;28;20004;-76
2022/07/27 01:35:24;;;;;;;;;;;21.70;64.00;;;;;;1997318;28;19906;-75
2022/07/27 01:36:23;;;;;;;;;;;21.70;64.10;;;;;;1997331;28;19945;-76
2022/07/27 01:37:21;;;;;;;;;;;21.70;64.10;;;;;;1997329;28;19905;-76
2022/07/27 01:38:20;;;;;;;;;;;21.70;64.10;;;;;;1997054;28;19910;-76
2022/07/27 01:39:21;;;;;;;;;;;21.70;64.10;;;;;;1997115;28;20004;-76
2022/07/27 01:40:20;;;;;;;;;;;21.70;64.20;;;;;;1997200;28;19961;-76
2022/07/27 01:41:19;;;;;;;;;;;21.70;64.20;;;;;;1997246;28;19906;-76
2022/07/27 01:42:17;;;;;;;;;;;21.70;64.10;;;;;;1997327;28;19952;-76
2022/07/27 01:43:16;;;;;;;;;;;21.70;64.10;;;;;;1997315;28;19933;-76
2022/07/27 01:44:14;;;;;;;;;;;21.70;64.10;;;;;;1997351;28;19937;-76
2022/07/27 01:45:13;;;;;;;;;;;21.70;64.10;;;;;;1997225;28;20343;-76
2022/07/27 01:46:12;;;;;;;;;;;21.70;64.10;;;;;;1988717;28;20309;-76
2022/07/27 01:47:11;;;;;;;;;;;21.70;64.00;;;;;;1988850;28;19929;-76
2022/07/27 01:48:09;;;;;;;;;;;21.70;64.10;;;;;;1996771;28;19917;-76
2022/07/27 01:49:08;;;;;;;;;;;21.70;64.20;;;;;;1997173;28;19944;-76
2022/07/27 01:50:08;;;;;;;;;;;21.70;64.10;;;;;;1988794;28;19906;-76
2022/07/27 01:51:06;;;;;;;;;;;21.70;64.10;;;;;;1980841;28;20053;-77
2022/07/27 01:52:06;;;;;;;;;;;21.70;64.20;;;;;;1988475;28;19957;-75
2022/07/27 01:53:05;;;;;;;;;;;21.70;64.00;;;;;;1996872;28;20000;-75
2022/07/27 01:54:04;;;;;;;;;;;21.70;64.20;;;;;;1997077;28;19905;-75
2022/07/27 01:55:02;;;;;;;;;;;21.70;64.20;;;;;;1997315;28;20000;-75
2022/07/27 01:56:01;;;;;;;;;;;21.70;64.20;;;;;;1997106;28;19912;-76
2022/07/27 01:57:00;;;;;;;;;;;21.70;64.20;;;;;;1997208;28;19916;-76
2022/07/27 01:57:58;;;;;;;;;;;21.70;64.20;;;;;;1997060;28;19949;-75
2022/07/27 01:58:57;;;;;;;;;;;21.70;64.30;;;;;;1997167;28;19933;-75
2022/07/27 01:59:56;;;;;;;;;;;21.70;64.20;;;;;;1997009;28;19905;-75
2022/07/27 02:00:54;;;;;;;;;;;21.70;64.20;;;;;;1996830;28;19988;-76
2022/07/27 02:01:53;;;;;;;;;;;21.70;64.20;;;;;;1996996;28;20320;-75
2022/07/27 02:02:51;;;;;;;;;;;21.70;64.20;;;;;;1997044;28;20352;-76
2022/07/27 02:03:50;;;;;;;;;;;21.70;64.20;;;;;;1988792;28;19914;-76
2022/07/27 02:04:48;;;;;;;;;;;21.70;64.20;;;;;;1988958;28;19913;-75
2022/07/27 02:05:47;;;;;;;;;;;21.70;64.20;;;;;;1996514;28;19913;-77
2022/07/27 02:06:46;;;;;;;;;;;21.70;64.20;;;;;;1997116;28;19939;-76
2022/07/27 02:07:44;;;;;;;;;;;21.70;64.10;;;;;;1997215;28;19956;-76
2022/07/27 02:08:43;;;;;;;;;;;21.70;64.20;;;;;;1997137;28;19912;-75
2022/07/27 02:09:44;;;;;;;;;;;21.70;64.20;;;;;;1997023;28;19993;-75
2022/07/27 02:13:17;;;;;;;;;;;21.70;64.30;;;;;;1997188;28;19958;-76
2022/07/27 02:14:16;;;;;;;;;;;21.70;64.40;;;;;;1988723;28;19981;-75
2022/07/27 02:15:18;;;;;;;;;;;21.70;64.30;;;;;;1988696;28;19907;-76
2022/07/27 02:16:17;;;;;;;;;;;21.70;64.20;;;;;;1996923;28;19959;-76
2022/07/27 02:17:15;;;;;;;;;;;21.70;64.30;;;;;;1996870;28;19906;-76
2022/07/27 02:18:15;;;;;;;;;;;21.70;64.30;;;;;;1997233;28;19905;-77
2022/07/27 02:19:14;;;;;;;;;;;21.70;64.30;;;;;;1997074;28;19932;-76
2022/07/27 02:20:14;;;;;;;;;;;21.70;64.30;;;;;;1996895;28;19906;-75
2022/07/27 02:21:12;;;;;;;;;;;21.70;64.20;;;;;;1997053;28;19906;-75
2022/07/27 02:22:10;;;;;;;;;;;21.70;64.30;;;;;;1997220;28;19905;-76
2022/07/27 02:23:09;;;;;;;;;;;21.70;64.40;;;;;;1997067;28;19910;-76
2022/07/27 02:24:07;;;;;;;;;;;21.70;64.40;;;;;;1996970;28;20004;-76
2022/07/27 02:25:06;;;;;;;;;;;21.70;64.40;;;;;;1996910;28;19950;-75
2022/07/27 02:26:05;;;;;;;;;;;21.70;64.40;;;;;;1996996;28;19906;-75
2022/07/27 02:27:04;;;;;;;;;;;21.70;64.30;;;;;;1997016;28;19933;-75
2022/07/27 02:28:03;;;;;;;;;;;21.70;64.20;;;;;;1988924;28;19910;-76
2022/07/27 02:29:01;;;;;;;;;;;21.70;64.30;;;;;;1980972;29;19910;-76
2022/07/27 02:30:00;;;;;;;;;;;21.60;64.30;;;;;;1988161;28;19984;-75
2022/07/27 02:31:01;;;;;;;;;;;21.70;64.40;;;;;;1996686;28;19972;-76
2022/07/27 02:32:00;;;;;;;;;;;21.70;64.40;;;;;;1997102;28;20356;-76
2022/07/27 02:32:59;;;;;;;;;;;21.70;64.40;;;;;;1988767;28;19910;-76
2022/07/27 02:33:58;;;;;;;;;;;21.70;64.30;;;;;;1988854;28;19913;-76
2022/07/27 02:34:57;;;;;;;;;;;21.60;64.40;;;;;;1996901;28;19961;-76
2022/07/27 02:35:56;;;;;;;;;;;21.70;64.30;;;;;;1989017;28;19910;-76
2022/07/27 02:36:54;;;;;;;;;;;21.60;64.20;;;;;;1989077;28;20349;-76
2022/07/27 02:37:53;;;;;;;;;;;21.60;64.30;;;;;;1996695;28;19906;-76
2022/07/27 02:38:51;;;;;;;;;;;21.60;64.30;;;;;;1988839;28;19997;-76
2022/07/27 02:39:51;;;;;;;;;;;21.60;64.30;;;;;;1989255;28;19992;-76
2022/07/27 02:40:50;;;;;;;;;;;21.60;64.30;;;;;;1996975;28;19996;-76
2022/07/27 02:41:48;;;;;;;;;;;21.60;64.40;;;;;;1997421;28;19910;-76
2022/07/27 02:42:47;;;;;;;;;;;21.60;64.30;;;;;;1997422;28;19910;-76
2022/07/27 02:43:47;;;;;;;;;;;21.60;64.30;;;;;;1997260;28;19960;-76
2022/07/27 02:44:45;;;;;;;;;;;21.60;64.30;;;;;;1997205;28;19917;-76
2022/07/27 02:45:45;;;;;;;;;;;21.60;64.30;;;;;;1988682;28;20318;-76
2022/07/27 02:46:45;;;;;;;;;;;21.60;64.30;;;;;;1988809;28;19910;-75
2022/07/27 02:47:44;;;;;;;;;;;21.60;64.30;;;;;;1996997;28;20250;-76
2022/07/27 02:48:42;;;;;;;;;;;21.60;64.30;;;;;;1997014;28;19913;-75
2022/07/27 02:49:41;;;;;;;;;;;21.60;64.30;;;;;;1997353;28;19910;-76
2022/07/27 02:50:39;;;;;;;;;;;21.70;64.40;;;;;;1997335;28;20291;-76
2022/07/27 02:51:38;;;;;;;;;;;21.60;64.30;;;;;;1997151;28;19905;-75
2022/07/27 02:52:36;;;;;;;;;;;21.60;64.20;;;;;;1997076;28;19986;-76
2022/07/27 02:53:35;;;;;;;;;;;21.60;64.30;;;;;;1997340;28;20272;-75
2022/07/27 02:54:34;;;;;;;;;;;21.60;64.20;;;;;;1996834;28;19905;-76
2022/07/27 02:55:32;;;;;;;;;;;21.60;64.30;;;;;;1997059;28;20432;-76
2022/07/27 02:56:30;;;;;;;;;;;21.60;64.30;;;;;;1997569;28;19964;-76
2022/07/27 02:57:29;;;;;;;;;;;21.60;64.30;;;;;;1997454;28;19910;-76
2022/07/27 02:58:29;;;;;;;;;;;21.60;64.40;;;;;;1997566;28;20261;-76
2022/07/27 02:59:28;;;;;;;;;;;21.60;64.40;;;;;;1997956;28;19914;-75
2022/07/27 03:00:26;;;;;;;;;;;21.60;64.40;;;;;;1998549;28;20039;-76
2022/07/27 03:01:26;;;;;;;;;;;21.60;64.30;;;;;;1998645;28;19949;-76
2022/07/27 03:02:25;;;;;;;;;;;21.60;64.40;;;;;;1989601;28;19906;-76
2022/07/27 03:03:23;;;;;;;;;;;21.60;64.40;;;;;;1990212;28;19914;-76
2022/07/27 03:04:22;;;;;;;;;;;21.60;64.40;;;;;;1997802;28;19996;-76
2022/07/27 03:05:20;;;;;;;;;;;21.60;64.40;;;;;;1998460;28;19912;-76
2022/07/27 03:06:19;;;;;;;;;;;21.60;64.50;;;;;;1998381;28;19941;-76
2022/07/27 03:07:17;;;;;;;;;;;21.60;64.50;;;;;;1998390;28;19906;-76
2022/07/27 03:08:17;;;;;;;;;;;21.60;64.50;;;;;;1998647;28;19913;-76
2022/07/27 03:09:15;;;;;;;;;;;21.60;64.40;;;;;;1998488;28;19910;-77
2022/07/27 03:10:14;;;;;;;;;;;21.60;64.30;;;;;;1999684;28;19905;-76
2022/07/27 03:11:13;;;;;;;;;;;21.60;64.40;;;;;;2000811;28;20245;-74
2022/07/27 03:12:12;;;;;;;;;;;21.60;64.40;;;;;;1997992;28;20388;-74
2022/07/27 03:13:10;;;;;;;;;;;21.60;64.50;;;;;;1997773;28;19906;-75
2022/07/27 03:14:09;;;;;;;;;;;21.60;64.50;;;;;;2006353;28;20323;-75
2022/07/27 03:15:08;;;;;;;;;;;21.60;64.50;;;;;;2006186;28;19973;-75
2022/07/27 03:16:06;;;;;;;;;;;21.60;64.50;;;;;;2006911;28;19972;-75
2022/07/27 03:17:05;;;;;;;;;;;21.60;64.40;;;;;;2006682;28;19906;-75
2022/07/27 03:18:03;;;;;;;;;;;21.60;64.40;;;;;;2006762;28;19906;-75
2022/07/27 03:19:02;;;;;;;;;;;21.60;64.40;;;;;;2006725;28;19906;-75
2022/07/27 03:20:00;;;;;;;;;;;21.60;64.50;;;;;;2004930;28;19961;-75
2022/07/27 03:21:00;;;;;;;;;;;21.60;64.40;;;;;;2004860;28;19960;-77
2022/07/27 03:21:58;;;;;;;;;;;21.60;64.50;;;;;;1997144;28;19981;-74
2022/07/27 03:22:58;;;;;;;;;;;21.60;64.50;;;;;;1998491;28;19906;-75
2022/07/27 03:23:57;;;;;;;;;;;21.60;64.40;;;;;;2005947;28;19893;-74
2022/07/27 03:24:55;;;;;;;;;;;21.60;64.40;;;;;;2005142;28;19906;-76
2022/07/27 03:25:53;;;;;;;;;;;21.60;64.30;;;;;;2006454;28;19906;-75
2022/07/27 03:26:52;;;;;;;;;;;21.60;64.40;;;;;;2006175;28;19909;-75
2022/07/27 03:27:50;;;;;;;;;;;21.60;64.50;;;;;;2006226;28;19906;-76
2022/07/27 03:28:49;;;;;;;;;;;21.60;64.50;;;;;;2005668;28;20110;-75
2022/07/27 03:29:47;;;;;;;;;;;21.60;64.50;;;;;;1997487;28;19906;-75
2022/07/27 03:30:46;;;;;;;;;;;21.60;64.40;;;;;;1997021;28;19948;-75
2022/07/27 03:31:46;;;;;;;;;;;21.60;64.40;;;;;;2004383;28;19905;-76
2022/07/27 03:32:44;;;;;;;;;;;21.60;64.50;;;;;;2004777;28;19906;-75
2022/07/27 03:33:43;;;;;;;;;;;21.60;64.50;;;;;;1995757;28;20413;-75
2022/07/27 03:34:41;;;;;;;;;;;21.60;64.40;;;;;;1992508;28;19906;-75
2022/07/27 03:35:40;;;;;;;;;;;21.60;64.40;;;;;;2001294;28;19960;-76
2022/07/27 03:36:38;;;;;;;;;;;21.60;64.40;;;;;;2002866;28;19906;-75
2022/07/27 03:37:37;;;;;;;;;;;21.60;64.40;;;;;;2002426;28;19906;-75
2022/07/27 03:38:35;;;;;;;;;;;21.60;64.40;;;;;;2001290;28;19941;-75
2022/07/27 03:39:34;;;;;;;;;;;21.60;64.40;;;;;;2001605;28;19909;-75
2022/07/27 03:40:32;;;;;;;;;;;21.60;64.50;;;;;;2002021;28;19913;-76
2022/07/27 03:41:31;;;;;;;;;;;21.60;64.50;;;;;;1991495;28;19913;-76
2022/07/27 03:42:31;;;;;;;;;;;21.60;64.50;;;;;;1992139;28;19964;-76
2022/07/27 03:43:29;;;;;;;;;;;21.60;64.60;;;;;;2000041;28;19906;-76
2022/07/27 03:44:30;;;;;;;;;;;21.60;65.30;;;;;;1992436;28;19922;-76
2022/07/27 03:45:28;;;;;;;;;;;21.60;64.60;;;;;;1994130;28;20363;-76
2022/07/27 03:46:27;;;;;;;;;;;21.60;64.50;;;;;;2001384;28;19976;-77
2022/07/27 03:47:25;;;;;;;;;;;21.60;64.50;;;;;;2002972;28;19964;-75
2022/07/27 03:48:26;;;;;;;;;;;21.50;64.40;;;;;;2001153;28;19912;-76
2022/07/27 03:49:25;;;;;;;;;;;21.60;64.50;;;;;;1998141;28;19906;-77
2022/07/27 03:50:24;;;;;;;;;;;21.50;64.40;;;;;;1997896;28;20240;-77
2022/07/27 03:51:22;;;;;;;;;;;21.60;64.60;;;;;;1998151;28;19906;-77
2022/07/27 03:52:21;;;;;;;;;;;21.50;64.40;;;;;;1997914;28;20300;-76
2022/07/27 03:53:21;;;;;;;;;;;21.50;64.50;;;;;;1998104;28;19917;-76
2022/07/27 03:54:19;;;;;;;;;;;21.50;64.50;;;;;;1997996;28;20106;-77
2022/07/27 03:55:18;;;;;;;;;;;21.60;64.50;;;;;;1997996;28;20002;-76
2022/07/27 03:56:17;;;;;;;;;;;21.50;64.50;;;;;;1989518;28;19914;-76
2022/07/27 03:57:17;;;;;;;;;;;21.60;64.60;;;;;;1989765;28;19910;-76
2022/07/27 03:58:15;;;;;;;;;;;21.50;64.40;;;;;;1997690;28;19912;-76
2022/07/27 03:59:15;;;;;;;;;;;21.50;64.50;;;;;;1997996;28;19913;-76
2022/07/27 04:00:15;;;;;;;;;;;21.50;64.50;;;;;;1997896;28;20271;-77
2022/07/27 04:01:14;;;;;;;;;;;21.50;64.50;;;;;;1998128;28;19960;-76
2022/07/27 04:02:12;;;;;;;;;;;21.60;64.60;;;;;;1998024;28;19956;-76
2022/07/27 04:03:11;;;;;;;;;;;21.60;64.70;;;;;;1989987;28;20385;-75
2022/07/27 04:04:09;;;;;;;;;;;21.50;64.60;;;;;;1989585;28;20368;-75
2022/07/27 04:05:10;;;;;;;;;;;21.60;64.70;;;;;;1997550;28;19993;-76
2022/07/27 04:06:09;;;;;;;;;;;21.50;64.50;;;;;;1998037;28;19926;-76
2022/07/27 04:07:07;;;;;;;;;;;21.50;64.50;;;;;;1998204;28;19971;-76
2022/07/27 04:08:07;;;;;;;;;;;21.50;64.50;;;;;;1998388;28;19906;-76
2022/07/27 04:09:06;;;;;;;;;;;21.50;64.50;;;;;;1990122;28;20249;-76
2022/07/27 04:10:05;;;;;;;;;;;21.50;64.60;;;;;;1990228;28;19985;-76
2022/07/27 04:11:03;;;;;;;;;;;21.50;64.60;;;;;;1996940;28;20382;-76
2022/07/27 04:12:03;;;;;;;;;;;21.50;64.60;;;;;;1998233;28;19970;-75
2022/07/27 04:13:01;;;;;;;;;;;21.50;64.60;;;;;;1998386;28;19906;-76
2022/07/27 04:14:00;;;;;;;;;;;21.60;64.80;;;;;;1989856;28;19949;-76
2022/07/27 04:14:58;;;;;;;;;;;21.50;64.60;;;;;;1989892;28;19906;-76
2022/07/27 04:15:57;;;;;;;;;;;21.50;64.60;;;;;;1998381;28;19960;-76
2022/07/27 04:16:56;;;;;;;;;;;21.50;64.60;;;;;;1990389;28;19913;-76
2022/07/27 04:17:57;;;;;;;;;;;21.50;64.60;;;;;;1989247;28;19913;-76
2022/07/27 04:18:55;;;;;;;;;;;21.50;64.60;;;;;;1997673;28;19906;-76
2022/07/27 04:19:54;;;;;;;;;;;21.50;64.60;;;;;;1997750;28;19952;-76
2022/07/27 04:20:53;;;;;;;;;;;21.50;64.60;;;;;;1997862;28;19905;-76
2022/07/27 04:21:51;;;;;;;;;;;21.50;64.60;;;;;;1989461;28;20452;-76
2022/07/27 04:22:50;;;;;;;;;;;21.50;64.60;;;;;;1989502;28;20065;-76
2022/07/27 04:23:49;;;;;;;;;;;21.50;64.60;;;;;;1997299;28;19906;-77
2022/07/27 04:24:47;;;;;;;;;;;21.50;64.70;;;;;;1998166;28;19906;-76
2022/07/27 04:25:46;;;;;;;;;;;21.50;64.60;;;;;;1998286;28;19912;-76
2022/07/27 04:26:44;;;;;;;;;;;21.50;64.60;;;;;;1998048;28;20244;-77
2022/07/27 04:27:43;;;;;;;;;;;21.50;64.60;;;;;;1989737;28;20406;-77
2022/07/27 04:28:41;;;;;;;;;;;21.50;64.60;;;;;;1989623;28;19912;-74
2022/07/27 04:29:40;;;;;;;;;;;21.50;64.60;;;;;;1997496;28;19917;-75
2022/07/27 04:30:38;;;;;;;;;;;21.50;64.70;;;;;;1997837;28;19906;-75
2022/07/27 04:31:37;;;;;;;;;;;21.50;64.70;;;;;;1998144;28;20334;-75
2022/07/27 04:32:35;;;;;;;;;;;21.50;64.70;;;;;;1989423;28;19917;-76
2022/07/27 04:33:34;;;;;;;;;;;21.50;64.70;;;;;;1989496;28;19965;-76
2022/07/27 04:34:32;;;;;;;;;;;21.50;64.70;;;;;;1997648;28;19906;-77
2022/07/27 04:35:31;;;;;;;;;;;21.50;64.80;;;;;;1998147;28;19906;-75
2022/07/27 04:36:29;;;;;;;;;;;21.50;64.70;;;;;;1998447;28;19914;-76
2022/07/27 04:37:29;;;;;;;;;;;21.50;64.70;;;;;;1997813;28;19995;-76
2022/07/27 04:38:28;;;;;;;;;;;21.50;64.70;;;;;;1998199;28;19906;-75
2022/07/27 04:39:26;;;;;;;;;;;21.50;65.10;;;;;;1997921;28;20352;-78
2022/07/27 04:40:28;;;;;;;;;;;21.50;64.70;;;;;;1997590;28;19972;-77
2022/07/27 04:41:26;;;;;;;;;;;21.50;64.70;;;;;;1997864;28;19906;-76
2022/07/27 04:42:25;;;;;;;;;;;21.50;64.70;;;;;;1997702;28;20353;-76
2022/07/27 04:43:23;;;;;;;;;;;21.50;64.90;;;;;;1997936;28;19905;-75
2022/07/27 04:44:23;;;;;;;;;;;21.50;64.80;;;;;;1989499;28;20384;-76
2022/07/27 04:45:23;;;;;;;;;;;21.50;64.80;;;;;;1981944;29;19910;-76
2022/07/27 04:46:21;;;;;;;;;;;21.50;64.80;;;;;;1989385;28;19993;-76
2022/07/27 04:47:20;;;;;;;;;;;21.50;64.80;;;;;;1997377;28;19910;-75
2022/07/27 04:48:18;;;;;;;;;;;21.50;64.90;;;;;;1997705;28;20281;-75
2022/07/27 04:49:17;;;;;;;;;;;21.50;64.90;;;;;;1997727;28;19910;-76
2022/07/27 04:50:15;;;;;;;;;;;21.50;64.80;;;;;;1997630;28;19906;-76
2022/07/27 04:51:15;;;;;;;;;;;21.50;64.90;;;;;;1997500;28;20000;-76
2022/07/27 04:52:14;;;;;;;;;;;21.50;64.90;;;;;;1997561;28;19906;-76
2022/07/27 04:53:13;;;;;;;;;;;21.50;64.80;;;;;;1997455;28;19912;-77
2022/07/27 04:54:12;;;;;;;;;;;21.50;64.80;;;;;;1997487;28;19957;-77
2022/07/27 04:55:10;;;;;;;;;;;21.50;64.90;;;;;;1997179;28;19909;-77
2022/07/27 04:56:09;;;;;;;;;;;21.50;64.80;;;;;;1997413;28;19906;-76
2022/07/27 04:57:07;;;;;;;;;;;21.50;64.80;;;;;;1997544;28;19905;-76
2022/07/27 04:58:06;;;;;;;;;;;21.50;64.90;;;;;;1997431;28;20254;-77
2022/07/27 04:59:04;;;;;;;;;;;21.50;64.80;;;;;;1989111;28;19942;-75
2022/07/27 05:00:04;;;;;;;;;;;21.50;64.80;;;;;;1989095;28;20371;-77
2022/07/27 05:01:03;;;;;;;;;;;21.50;64.80;;;;;;1996938;28;20246;-75
2022/07/27 05:02:01;;;;;;;;;;;21.40;64.70;;;;;;1997381;28;20372;-76
2022/07/27 05:03:00;;;;;;;;;;;21.40;64.70;;;;;;1997405;28;19933;-76
2022/07/27 05:03:58;;;;;;;;;;;21.40;64.80;;;;;;1988943;28;20397;-77
2022/07/27 05:04:58;;;;;;;;;;;21.40;64.80;;;;;;1989085;28;19906;-76
2022/07/27 05:05:57;;;;;;;;;;;21.50;64.80;;;;;;1988653;28;19913;-76
2022/07/27 05:06:55;;;;;;;;;;;21.40;64.80;;;;;;1988927;28;20105;-76
2022/07/27 05:07:54;;;;;;;;;;;21.40;64.70;;;;;;1995814;28;20340;-75
2022/07/27 05:08:52;;;;;;;;;;;21.40;64.70;;;;;;1981688;28;19952;-76
2022/07/27 05:09:51;;;;;;;;;;;21.40;64.70;;;;;;1988620;28;20009;-76
2022/07/27 05:10:49;;;;;;;;;;;21.50;64.80;;;;;;1996598;28;20004;-76
2022/07/27 05:11:49;;;;;;;;;;;21.40;64.80;;;;;;1989007;28;19985;-76
2022/07/27 05:12:48;;;;;;;;;;;21.40;64.70;;;;;;1989122;28;19938;-76
2022/07/27 05:13:47;;;;;;;;;;;21.40;64.60;;;;;;1997212;28;19905;-76
2022/07/27 05:14:46;;;;;;;;;;;21.50;64.70;;;;;;1997330;28;20370;-76
2022/07/27 05:15:44;;;;;;;;;;;21.40;64.70;;;;;;1997306;28;19945;-76
2022/07/27 05:16:43;;;;;;;;;;;21.40;65.40;;;;;;1997283;28;20305;-76
2022/07/27 05:17:41;;;;;;;;;;;21.40;64.50;;;;;;1997350;28;19925;-76
2022/07/27 05:18:40;;;;;;;;;;;21.40;64.50;;;;;;1997274;28;19941;-76
2022/07/27 05:19:38;;;;;;;;;;;21.40;64.70;;;;;;1997292;28;19909;-76
2022/07/27 05:20:37;;;;;;;;;;;21.40;64.70;;;;;;1997341;28;20300;-76
2022/07/27 05:21:35;;;;;;;;;;;21.40;64.70;;;;;;1997105;28;19905;-77
2022/07/27 05:22:34;;;;;;;;;;;21.40;64.70;;;;;;1988548;28;20384;-77
2022/07/27 05:23:33;;;;;;;;;;;21.40;64.60;;;;;;1988998;28;20001;-76
2022/07/27 05:24:31;;;;;;;;;;;21.40;65.30;;;;;;1996798;28;19905;-76
2022/07/27 05:25:30;;;;;;;;;;;21.50;64.80;;;;;;1997256;28;19917;-76
2022/07/27 05:26:28;;;;;;;;;;;21.50;64.70;;;;;;1997246;28;19910;-76
2022/07/27 05:27:27;;;;;;;;;;;21.40;64.60;;;;;;1997321;28;19906;-75
2022/07/27 05:28:25;;;;;;;;;;;21.50;64.60;;;;;;1997201;28;19925;-76
2022/07/27 05:29:24;;;;;;;;;;;21.50;64.80;;;;;;1997219;28;19956;-76
2022/07/27 05:30:24;;;;;;;;;;;21.50;64.80;;;;;;1997210;28;19905;-76
2022/07/27 05:31:22;;;;;;;;;;;21.50;64.80;;;;;;1997151;28;19917;-76
2022/07/27 05:32:22;;;;;;;;;;;21.50;64.70;;;;;;1997119;28;20313;-76
2022/07/27 05:33:21;;;;;;;;;;;21.40;64.60;;;;;;1997111;28;19976;-77
2022/07/27 05:34:19;;;;;;;;;;;21.40;64.50;;;;;;1997281;28;19905;-75
2022/07/27 05:35:18;;;;;;;;;;;21.40;64.60;;;;;;1997148;28;19906;-76
2022/07/27 05:36:17;;;;;;;;;;;21.50;64.90;;;;;;1997094;28;19905;-76
2022/07/27 05:37:16;;;;;;;;;;;21.40;64.80;;;;;;1997271;28;19913;-76
2022/07/27 05:38:14;;;;;;;;;;;21.50;64.90;;;;;;1997228;28;19937;-76
2022/07/27 05:39:13;;;;;;;;;;;21.40;64.70;;;;;;1997259;28;19944;-76
2022/07/27 05:40:11;;;;;;;;;;;21.50;64.80;;;;;;1997071;28;20403;-76
2022/07/27 05:41:10;;;;;;;;;;;21.40;64.80;;;;;;1996735;28;19910;-76
2022/07/27 05:42:08;;;;;;;;;;;21.40;64.80;;;;;;1997288;28;20373;-75
2022/07/27 05:43:07;;;;;;;;;;;21.40;64.70;;;;;;1997149;28;19905;-76
2022/07/27 05:44:05;;;;;;;;;;;21.40;64.70;;;;;;1997342;28;19906;-77
2022/07/27 05:45:04;;;;;;;;;;;21.40;64.70;;;;;;1997089;28;19906;-76
2022/07/27 05:46:03;;;;;;;;;;;21.40;64.70;;;;;;1997075;28;19906;-75
2022/07/27 05:47:03;;;;;;;;;;;21.40;64.80;;;;;;1997204;28;20000;-76
2022/07/27 05:48:01;;;;;;;;;;;21.50;64.80;;;;;;1988622;28;19910;-77
2022/07/27 05:49:00;;;;;;;;;;;21.40;64.80;;;;;;1989046;28;19910;-77
2022/07/27 05:49:58;;;;;;;;;;;21.50;64.80;;;;;;1997344;28;20028;-76
2022/07/27 05:50:57;;;;;;;;;;;21.50;64.90;;;;;;1996891;28;19952;-74
2022/07/27 05:51:55;;;;;;;;;;;21.50;64.80;;;;;;1988771;28;19906;-76
2022/07/27 05:52:56;;;;;;;;;;;21.50;64.90;;;;;;1981212;29;19930;-76
2022/07/27 05:53:54;;;;;;;;;;;21.50;64.90;;;;;;1988521;28;20001;-77
2022/07/27 05:54:53;;;;;;;;;;;21.50;64.80;;;;;;1997044;28;20337;-75
2022/07/27 05:55:51;;;;;;;;;;;21.50;64.90;;;;;;1997296;28;19906;-77
2022/07/27 05:56:51;;;;;;;;;;;21.50;64.90;;;;;;1988414;28;19917;-77